createdAt,value
2017-10-26T03:31:36.686Z,90.00
2017-10-26T03:34:04.232Z,90.40
2017-10-26T03:36:31.806Z,90.30
2017-10-26T03:38:59.356Z,90.20
2017-10-26T03:41:26.918Z,90.30
2017-10-26T03:43:55.381Z,90.40
2017-10-26T03:46:23.677Z,90.40
2017-10-26T03:48:51.235Z,90.40
2017-10-26T03:51:18.776Z,90.20
2017-10-26T03:53:47.120Z,90.50
2017-10-26T03:56:14.663Z,90.40
2017-10-26T03:58:42.214Z,90.30
2017-10-26T04:01:09.780Z,90.80
2017-10-26T04:03:37.319Z,90.10
2017-10-26T04:06:04.881Z,90.70
2017-10-26T04:08:32.433Z,89.70
2017-10-26T04:10:59.972Z,89.90
2017-10-26T04:13:28.288Z,89.00
2017-10-26T04:15:55.848Z,88.90
2017-10-26T04:18:23.410Z,89.40
2017-10-26T04:20:50.986Z,90.10
2017-10-26T04:23:18.547Z,90.40
2017-10-26T04:25:46.090Z,90.50
2017-10-26T04:28:13.928Z,91.20
2017-10-26T04:30:41.467Z,91.40
2017-10-26T04:33:09.781Z,92.00
2017-10-26T04:35:37.348Z,92.00
2017-10-26T04:38:04.928Z,91.60
2017-10-26T04:40:32.553Z,91.00
2017-10-26T04:43:00.081Z,90.90
2017-10-26T04:45:28.431Z,92.10
2017-10-26T04:47:55.986Z,92.10
2017-10-26T04:50:23.534Z,91.70
2017-10-26T04:52:51.117Z,91.20
2017-10-26T04:55:18.668Z,91.30
2017-10-26T04:57:46.238Z,91.90
2017-10-26T05:00:13.798Z,92.20
2017-10-26T05:02:41.379Z,92.40
2017-10-26T05:05:09.701Z,93.00
2017-10-26T05:07:37.268Z,92.90
2017-10-26T05:10:05.409Z,92.80
2017-10-26T05:12:33.123Z,93.00
2017-10-26T05:15:00.720Z,93.20
2017-10-26T05:17:29.030Z,93.70
2017-10-26T05:19:56.588Z,93.70
2017-10-26T05:22:24.138Z,94.00
2017-10-26T05:24:51.695Z,94.40
2017-10-26T05:27:19.260Z,94.80
2017-10-26T05:29:46.822Z,95.20
2017-10-26T05:32:14.384Z,94.20
2017-10-26T05:34:42.104Z,94.20
2017-10-26T05:37:10.466Z,95.10
2017-10-26T05:39:37.999Z,95.00
2017-10-26T05:42:06.310Z,95.10
2017-10-26T05:44:34.637Z,95.40
2017-10-26T05:47:02.192Z,95.30
2017-10-26T05:49:30.058Z,95.10
2017-10-26T05:51:57.615Z,94.70
2017-10-26T05:54:25.385Z,95.30
2017-10-26T05:56:52.948Z,94.80
2017-10-26T05:59:20.502Z,95.20
2017-10-26T06:01:48.927Z,94.30
2017-10-26T06:04:16.479Z,93.80
2017-10-26T06:06:44.065Z,93.70
2017-10-26T06:09:12.391Z,95.50
2017-10-26T06:11:39.935Z,95.50
2017-10-26T06:14:07.504Z,94.80
2017-10-26T06:16:35.029Z,95.00
2017-10-26T06:19:03.371Z,95.20
2017-10-26T06:21:30.911Z,95.10
2017-10-26T06:23:58.488Z,95.30
2017-10-26T06:26:26.027Z,95.10
2017-10-26T06:28:53.583Z,94.70
2017-10-26T06:31:21.159Z,95.10
2017-10-26T06:33:48.695Z,94.80
2017-10-26T06:36:16.271Z,94.30
2017-10-26T06:38:43.825Z,93.50
2017-10-26T06:41:11.398Z,94.00
2017-10-26T06:43:38.942Z,94.50
2017-10-26T06:46:06.488Z,95.00
2017-10-26T06:48:34.063Z,94.60
2017-10-26T06:51:01.600Z,92.50
2017-10-26T06:53:29.152Z,92.40
2017-10-26T06:55:56.693Z,92.80
2017-10-26T06:58:25.041Z,94.60
2017-10-26T07:00:52.683Z,94.60
2017-10-26T07:03:20.230Z,93.90
2017-10-26T07:05:47.835Z,93.30
2017-10-26T07:08:15.389Z,92.80
2017-10-26T07:10:42.994Z,93.10
2017-10-26T07:13:10.531Z,94.40
2017-10-26T07:15:38.875Z,94.10
2017-10-26T07:18:06.422Z,94.10
2017-10-26T07:20:33.939Z,94.10
2017-10-26T07:23:01.505Z,93.50
2017-10-26T07:25:29.021Z,92.60
2017-10-26T07:27:56.584Z,93.00
2017-10-26T07:30:24.134Z,91.60
2017-10-26T07:32:52.049Z,91.50
2017-10-26T07:35:19.588Z,91.60
2017-10-26T07:37:47.900Z,93.20
2017-10-26T07:40:15.461Z,93.20
2017-10-26T07:42:42.967Z,93.00
2017-10-26T07:45:10.549Z,92.30
2017-10-26T07:47:38.864Z,92.70
2017-10-26T07:50:06.447Z,92.70
2017-10-26T07:52:34.055Z,92.70
2017-10-26T07:55:01.603Z,92.90
2017-10-26T07:57:29.175Z,93.30
2017-10-26T07:59:56.722Z,93.10
2017-10-26T08:02:25.062Z,92.40
2017-10-26T08:04:52.711Z,92.40
2017-10-26T08:07:20.282Z,92.20
2017-10-26T08:09:47.833Z,92.00
2017-10-26T08:12:15.369Z,92.10
2017-10-26T08:14:42.928Z,90.20
2017-10-26T08:17:10.515Z,90.20
2017-10-26T08:19:38.065Z,90.00
2017-10-26T08:22:05.610Z,89.60
2017-10-26T08:24:33.184Z,88.00
2017-10-26T08:27:01.815Z,90.90
2017-10-26T08:29:30.135Z,90.30
2017-10-26T08:31:57.712Z,90.30
2017-10-26T08:34:25.267Z,89.60
2017-10-26T08:36:52.843Z,90.20
2017-10-26T08:39:20.376Z,90.80
2017-10-26T08:41:47.956Z,90.50
2017-10-26T08:44:15.509Z,90.10
2017-10-26T08:46:44.156Z,90.60
2017-10-26T08:49:11.777Z,90.20
2017-10-26T08:51:39.323Z,90.00
2017-10-26T08:54:06.896Z,90.50
2017-10-26T08:56:34.441Z,90.00
2017-10-26T08:59:02.381Z,90.00
2017-10-26T09:01:29.916Z,89.40
2017-10-26T09:03:57.479Z,88.20
2017-10-26T09:06:25.033Z,87.40
2017-10-26T09:08:52.594Z,87.30
2017-10-26T09:11:20.152Z,87.80
2017-10-26T09:13:47.684Z,88.40
2017-10-26T09:16:15.997Z,88.90
2017-10-26T09:18:43.544Z,88.80
2017-10-26T09:21:11.103Z,89.70
2017-10-26T09:23:38.678Z,88.90
2017-10-26T09:26:06.219Z,88.60
2017-10-26T09:28:33.803Z,88.70
2017-10-26T09:31:01.337Z,88.20
2017-10-26T09:33:34.545Z,87.30
2017-10-26T09:36:02.088Z,87.70
2017-10-26T09:38:30.342Z,87.30
2017-10-26T09:40:58.673Z,87.70
2017-10-26T09:43:26.828Z,87.70
2017-10-26T09:45:54.381Z,87.40
2017-10-26T09:48:21.924Z,88.70
2017-10-26T09:50:50.255Z,89.20
2017-10-26T09:53:18.579Z,89.80
2017-10-26T09:55:46.883Z,88.30
2017-10-26T09:58:14.436Z,88.20
2017-10-26T10:00:42.007Z,88.50
2017-10-26T10:03:09.615Z,88.80
2017-10-26T10:05:37.148Z,88.60
2017-10-26T10:08:04.727Z,88.50
2017-10-26T10:10:32.289Z,86.30
2017-10-26T10:12:59.856Z,86.90
2017-10-26T10:15:27.429Z,86.80
2017-10-26T10:17:55.744Z,85.90
2017-10-26T10:20:23.341Z,85.70
2017-10-26T10:22:50.996Z,86.40
2017-10-26T10:25:18.601Z,86.90
2017-10-26T10:27:46.166Z,86.50
2017-10-26T10:30:13.709Z,85.20
2017-10-26T10:32:42.031Z,89.10
2017-10-26T10:35:09.575Z,89.10
2017-10-26T10:37:37.134Z,88.00
2017-10-26T10:40:05.549Z,87.50
2017-10-26T10:42:33.237Z,87.80
2017-10-26T10:45:00.783Z,86.90
2017-10-26T10:47:28.317Z,87.20
2017-10-26T10:49:55.888Z,89.20
2017-10-26T10:52:23.443Z,89.50
2017-10-26T10:54:51.016Z,89.30
2017-10-26T10:57:18.583Z,88.50
2017-10-26T10:59:51.928Z,87.20
2017-10-26T11:02:19.472Z,87.40
2017-10-26T11:04:47.024Z,88.00
2017-10-26T11:07:15.369Z,87.50
2017-10-26T11:09:42.914Z,87.40
2017-10-26T11:12:10.481Z,86.20
2017-10-26T11:14:38.022Z,84.60
2017-10-26T11:17:05.580Z,84.80
2017-10-26T11:19:33.129Z,85.50
2017-10-26T11:22:00.677Z,84.70
2017-10-26T11:24:28.244Z,83.00
2017-10-26T11:26:55.783Z,82.00
2017-10-26T11:29:23.339Z,83.00
2017-10-26T11:31:50.885Z,80.60
2017-10-26T11:34:19.235Z,79.40
2017-10-26T11:36:46.831Z,79.40
2017-10-26T11:39:15.148Z,76.10
2017-10-26T11:41:42.710Z,76.00
2017-10-26T11:44:10.225Z,73.20
2017-10-26T11:46:38.553Z,76.60
2017-10-26T11:49:06.092Z,76.60
2017-10-26T11:51:33.669Z,76.70
2017-10-26T11:54:01.211Z,69.90
2017-10-26T11:56:28.743Z,58.80
2017-10-26T11:58:57.076Z,63.40
2017-10-26T12:01:24.612Z,63.50
2017-10-26T12:03:52.169Z,66.20
2017-10-26T12:06:19.720Z,67.90
2017-10-26T12:08:47.607Z,69.90
2017-10-26T12:11:15.140Z,72.10
2017-10-26T12:13:42.676Z,69.20
2017-10-26T12:16:11.014Z,62.10
2017-10-26T12:18:38.564Z,62.00
2017-10-26T12:21:06.127Z,61.80
2017-10-26T12:23:33.666Z,61.40
2017-10-26T12:26:01.511Z,60.00
2017-10-26T12:28:29.049Z,64.10
2017-10-26T12:30:57.355Z,70.70
2017-10-26T12:33:24.947Z,70.60
2017-10-26T12:35:52.491Z,71.40
2017-10-26T12:38:20.063Z,72.30
2017-10-26T12:40:47.611Z,72.00
2017-10-26T12:43:15.183Z,71.20
2017-10-26T12:45:42.753Z,70.40
2017-10-26T12:48:10.314Z,70.00
2017-10-26T12:50:37.880Z,68.40
2017-10-26T12:53:05.505Z,68.00
2017-10-26T12:55:33.068Z,64.10
2017-10-26T12:58:00.664Z,59.90
2017-10-26T13:00:28.232Z,54.60
2017-10-26T13:02:55.775Z,52.50
2017-10-26T13:05:23.309Z,52.80
2017-10-26T13:07:50.879Z,57.10
2017-10-26T13:10:18.449Z,60.70
2017-10-26T13:12:46.019Z,63.20
2017-10-26T13:15:13.551Z,64.50
2017-10-26T13:17:41.075Z,62.70
2017-10-26T13:20:09.028Z,60.40
2017-10-26T13:22:37.333Z,57.80
2017-10-26T13:25:04.899Z,57.80
2017-10-26T13:27:32.497Z,56.40
2017-10-26T13:30:00.063Z,52.60
2017-10-26T13:32:27.606Z,49.10
2017-10-26T13:34:55.169Z,44.10
2017-10-26T13:37:22.729Z,41.70
2017-10-26T13:39:50.259Z,39.90
2017-10-26T13:42:17.810Z,37.80
2017-10-26T13:44:45.364Z,34.30
2017-10-26T13:47:12.935Z,34.60
2017-10-26T13:49:40.445Z,35.70
2017-10-26T13:52:07.969Z,36.20
2017-10-26T13:54:35.516Z,38.30
2017-10-26T13:57:03.076Z,37.50
2017-10-26T13:59:30.707Z,35.40
2017-10-26T14:01:59.048Z,39.20
2017-10-26T14:04:26.600Z,39.20
2017-10-26T14:06:54.157Z,39.80
2017-10-26T14:09:21.702Z,39.50
2017-10-26T14:11:49.351Z,39.20
2017-10-26T14:14:17.940Z,40.90
2017-10-26T14:16:45.516Z,39.90
2017-10-26T14:19:13.080Z,38.60
2017-10-26T14:21:40.627Z,38.60
2017-10-26T14:24:08.197Z,41.80
2017-10-26T14:26:35.747Z,46.10
2017-10-26T14:29:03.337Z,47.90
2017-10-26T14:31:30.866Z,50.60
2017-10-26T14:33:58.380Z,53.10
2017-10-26T14:36:26.711Z,55.80
2017-10-26T14:38:54.259Z,55.80
2017-10-26T14:41:21.840Z,56.60
2017-10-26T14:43:49.430Z,57.20
2017-10-26T14:46:17.735Z,58.30
2017-10-26T14:48:45.307Z,58.20
2017-10-26T14:51:12.856Z,59.00
2017-10-26T14:53:40.630Z,59.50
2017-10-26T14:56:08.185Z,60.70
2017-10-26T14:58:35.733Z,61.80
2017-10-26T15:01:03.313Z,62.00
2017-10-26T15:03:30.867Z,62.20
2017-10-26T15:05:58.467Z,63.60
2017-10-26T15:08:26.049Z,64.00
2017-10-26T15:10:54.371Z,64.80
2017-10-26T15:13:21.944Z,64.80
2017-10-26T15:15:49.493Z,65.20
2017-10-26T15:18:17.124Z,65.40
2017-10-26T15:20:45.535Z,66.30
2017-10-26T15:23:13.100Z,66.30
2017-10-26T15:25:40.692Z,67.00
2017-10-26T15:28:08.243Z,68.00
2017-10-26T15:30:36.558Z,68.10
2017-10-26T15:33:04.888Z,69.50
2017-10-26T15:35:32.601Z,69.40
2017-10-26T15:38:03.140Z,69.70
2017-10-26T15:40:30.723Z,69.50
2017-10-26T15:42:58.296Z,69.40
2017-10-26T15:45:26.617Z,69.60
2017-10-26T15:47:54.917Z,70.30
2017-10-26T15:50:22.522Z,70.30
2017-10-26T15:52:50.158Z,70.70
2017-10-26T15:55:17.770Z,71.30
2017-10-26T15:57:46.145Z,71.50
2017-10-26T16:00:14.471Z,72.20
2017-10-26T16:02:42.166Z,72.20
2017-10-26T16:05:10.645Z,72.70
2017-10-26T16:07:38.223Z,72.90
2017-10-26T16:10:06.597Z,73.40
2017-10-26T16:12:34.163Z,73.30
2017-10-26T16:15:02.525Z,73.50
2017-10-26T16:17:30.927Z,73.70
2017-10-26T16:19:59.256Z,74.00
2017-10-26T16:22:26.834Z,73.90
2017-10-26T16:24:54.414Z,74.50
2017-10-26T16:27:22.759Z,74.80
2017-10-26T16:29:50.424Z,74.80
2017-10-26T16:32:17.989Z,75.00
2017-10-26T16:34:45.816Z,75.40
2017-10-26T16:37:15.028Z,76.00
2017-10-26T16:39:42.605Z,75.90
2017-10-26T16:42:12.375Z,76.60
2017-10-26T16:44:40.077Z,76.60
2017-10-26T16:47:08.300Z,76.80
2017-10-26T16:49:36.707Z,77.30
2017-10-26T16:52:04.288Z,77.30
2017-10-26T16:54:32.601Z,77.50
2017-10-26T16:57:01.108Z,77.40
2017-10-26T16:59:28.650Z,78.50
2017-10-26T17:01:57.144Z,78.00
2017-10-26T17:04:24.691Z,77.90
2017-10-26T17:06:53.071Z,78.40
2017-10-26T17:09:20.656Z,78.30
2017-10-26T17:11:49.273Z,78.40
2017-10-26T17:14:17.801Z,78.50
2017-10-26T17:16:46.670Z,78.50
2017-10-26T17:19:15.119Z,78.80
2017-10-26T17:21:43.389Z,78.90
2017-10-26T17:24:11.929Z,78.80
2017-10-26T17:26:40.292Z,78.70
2017-10-26T17:29:08.662Z,77.80
2017-10-26T17:31:37.274Z,78.40
2017-10-26T17:34:05.622Z,79.20
2017-10-26T17:36:33.362Z,79.20
2017-10-26T17:39:03.676Z,80.00
2017-10-26T17:41:31.384Z,80.00
2017-10-26T17:43:59.382Z,80.50
2017-10-26T17:46:27.044Z,80.50
2017-10-26T17:48:55.903Z,80.60
2017-10-26T17:51:24.317Z,79.40
2017-10-26T17:53:51.929Z,79.20
2017-10-26T17:56:19.561Z,79.00
2017-10-26T17:58:47.200Z,79.30
2017-10-26T18:01:14.805Z,79.80
2017-10-26T18:03:43.327Z,80.10
2017-10-26T18:06:11.709Z,79.90
2017-10-26T18:08:40.448Z,80.00
2017-10-26T18:11:08.235Z,80.00
2017-10-26T18:13:36.067Z,80.00
2017-10-26T18:16:03.650Z,80.90
2017-10-26T18:18:31.261Z,80.00
2017-10-26T18:20:58.883Z,80.10
2017-10-26T18:23:26.664Z,80.20
2017-10-26T18:25:55.028Z,80.20
2017-10-26T18:28:22.710Z,80.00
2017-10-26T18:30:51.056Z,81.30
2017-10-26T18:33:18.655Z,81.30
2017-10-26T18:35:46.247Z,81.80
2017-10-26T18:38:13.893Z,81.70
2017-10-26T18:40:41.486Z,81.80
2017-10-26T18:43:09.843Z,81.40
2017-10-26T18:45:37.480Z,81.40
2017-10-26T18:48:05.372Z,81.10
2017-10-26T18:50:32.942Z,80.80
2017-10-26T18:53:00.905Z,80.60
2017-10-26T18:55:28.468Z,81.00
2017-10-26T18:57:56.398Z,81.10
2017-10-26T19:00:24.802Z,81.50
2017-10-26T19:02:52.695Z,81.50
2017-10-26T19:05:20.638Z,81.60
2017-10-26T19:07:48.221Z,82.40
2017-10-26T19:10:15.869Z,82.50
2017-10-26T19:12:43.469Z,82.50
2017-10-26T19:15:11.047Z,82.70
2017-10-26T19:17:39.433Z,83.10
2017-10-26T19:20:07.005Z,82.90
2017-10-26T19:22:34.891Z,82.30
2017-10-26T19:25:02.527Z,82.70
2017-10-26T19:27:30.093Z,82.70
2017-10-26T19:29:57.719Z,83.10
2017-10-26T19:32:25.315Z,82.60
2017-10-26T19:34:52.915Z,83.80
2017-10-26T19:37:20.507Z,83.20
2017-10-26T19:39:48.888Z,84.60
2017-10-26T19:42:17.980Z,84.80
2017-10-26T19:44:47.127Z,85.10
2017-10-26T19:47:14.719Z,84.30
2017-10-26T19:49:42.354Z,84.10
2017-10-26T19:52:10.026Z,83.90
2017-10-26T19:54:37.604Z,83.40
2017-10-26T19:57:05.216Z,82.90
2017-10-26T19:59:33.005Z,83.10
2017-10-26T20:02:00.962Z,84.00
2017-10-26T20:04:28.552Z,85.60
2017-10-26T20:06:56.099Z,86.30
2017-10-26T20:09:23.731Z,85.90
2017-10-26T20:11:51.543Z,85.10
2017-10-26T20:14:19.121Z,85.40
2017-10-26T20:16:46.720Z,86.40
2017-10-26T20:19:14.269Z,86.30
2017-10-26T20:21:41.895Z,86.20
2017-10-26T20:24:09.460Z,86.30
2017-10-26T20:26:37.137Z,85.70
2017-10-26T20:29:05.585Z,84.90
2017-10-26T20:31:33.142Z,84.90
2017-10-26T20:34:01.089Z,85.10
2017-10-26T20:36:28.632Z,86.20
2017-10-26T20:38:56.374Z,86.90
2017-10-26T20:41:23.897Z,86.90
2017-10-26T20:43:51.417Z,86.00
2017-10-26T20:46:19.013Z,85.50
2017-10-26T20:48:46.561Z,85.50
2017-10-26T20:51:19.821Z,86.60
2017-10-26T20:53:53.040Z,88.50
2017-10-26T20:56:26.205Z,88.70
2017-10-26T20:59:00.035Z,89.00
2017-10-26T21:08:25.075Z,89.20
2017-10-26T21:14:00.809Z,90.40
2017-10-26T21:16:29.132Z,90.00
2017-10-26T21:18:56.914Z,90.00
2017-10-26T21:21:24.478Z,89.60
2017-10-26T21:23:52.057Z,89.80
2017-10-26T21:26:20.397Z,89.60
2017-10-26T21:28:47.950Z,89.50
2017-10-26T21:31:15.528Z,89.50
2017-10-26T21:33:48.787Z,88.70
2017-10-26T21:36:16.376Z,88.80
2017-10-26T21:38:43.936Z,88.90
2017-10-26T21:41:11.498Z,89.50
2017-10-26T21:43:39.060Z,88.90
2017-10-26T21:46:06.607Z,88.90
2017-10-26T21:48:34.180Z,88.70
2017-10-26T21:51:01.735Z,88.30
2017-10-26T21:53:29.293Z,87.70
2017-10-26T21:55:56.861Z,87.20
2017-10-26T21:58:24.481Z,87.10
2017-10-26T22:00:52.065Z,87.10
2017-10-26T22:03:19.641Z,87.70
2017-10-26T22:05:47.189Z,87.10
2017-10-26T22:08:14.758Z,87.40
2017-10-26T22:10:42.308Z,87.80
2017-10-26T22:13:09.900Z,88.80
2017-10-26T22:15:38.215Z,89.60
2017-10-26T22:18:05.759Z,89.60
2017-10-26T22:20:33.334Z,89.70
2017-10-26T22:23:00.892Z,88.90
2017-10-26T22:25:28.478Z,89.10
2017-10-26T22:27:56.042Z,89.00
